createdAt,value
2018-06-08T00:00:39.931Z,88.90
2018-06-08T00:03:08.801Z,89.10
2018-06-08T00:05:37.650Z,89.70
2018-06-08T00:08:06.492Z,89.30
2018-06-08T00:10:35.341Z,90.20
2018-06-08T00:13:04.189Z,90.00
2018-06-08T00:15:33.091Z,90.20
2018-06-08T00:18:01.931Z,90.10
2018-06-08T00:20:30.767Z,90.10
2018-06-08T00:22:59.620Z,90.20
2018-06-08T00:25:28.463Z,90.60
2018-06-08T00:27:57.305Z,90.30
2018-06-08T00:30:26.149Z,90.00
2018-06-08T00:32:54.990Z,90.00
2018-06-08T00:35:23.848Z,89.90
2018-06-08T00:37:52.696Z,90.00
2018-06-08T00:40:21.541Z,90.10
2018-06-08T00:42:50.405Z,89.80
2018-06-08T00:45:19.250Z,89.60
2018-06-08T00:47:48.098Z,89.30
2018-06-08T00:50:16.941Z,89.30
2018-06-08T00:52:45.786Z,90.10
2018-06-08T00:55:14.641Z,90.20
2018-06-08T00:57:43.477Z,90.10
2018-06-08T01:00:12.332Z,90.00
2018-06-08T01:02:41.170Z,89.70
2018-06-08T01:05:10.017Z,90.10
2018-06-08T01:07:38.851Z,90.00
2018-06-08T01:10:07.693Z,90.00
2018-06-08T01:12:36.539Z,90.20
2018-06-08T01:15:05.387Z,90.10
2018-06-08T01:17:34.225Z,90.40
2018-06-08T01:20:03.076Z,90.50
2018-06-08T01:22:31.988Z,90.00
2018-06-08T01:25:00.784Z,90.00
2018-06-08T01:27:29.641Z,90.20
2018-06-08T01:29:58.487Z,90.20
2018-06-08T01:32:27.330Z,90.20
2018-06-08T01:34:56.175Z,90.10
2018-06-08T01:37:25.028Z,90.70
2018-06-08T01:39:53.875Z,90.80
2018-06-08T01:42:22.714Z,90.90
2018-06-08T01:44:51.556Z,90.70
2018-06-08T01:47:20.413Z,90.80
2018-06-08T01:49:49.255Z,90.50
2018-06-08T01:52:18.094Z,90.60
2018-06-08T01:54:46.947Z,90.70
2018-06-08T01:57:15.797Z,90.70
2018-06-08T01:59:44.655Z,90.10
2018-06-08T02:02:13.510Z,90.20
2018-06-08T02:04:42.348Z,90.40
2018-06-08T02:07:11.193Z,90.20
2018-06-08T02:09:40.042Z,90.80
2018-06-08T02:12:08.889Z,90.60
2018-06-08T02:14:37.728Z,90.50
2018-06-08T02:17:06.569Z,90.50
2018-06-08T02:19:35.413Z,90.60
2018-06-08T02:22:04.268Z,90.60
2018-06-08T02:24:33.088Z,90.60
2018-06-08T02:27:01.947Z,90.30
2018-06-08T02:29:30.789Z,90.30
2018-06-08T02:31:59.635Z,90.30
2018-06-08T02:34:28.486Z,90.60
2018-06-08T02:36:57.354Z,90.40
2018-06-08T02:39:26.201Z,90.30
2018-06-08T02:41:55.047Z,90.10
2018-06-08T02:44:23.896Z,90.60
2018-06-08T02:46:52.750Z,90.60
2018-06-08T02:49:21.588Z,90.40
2018-06-08T02:51:50.443Z,90.70
2018-06-08T02:54:19.291Z,90.50
2018-06-08T02:56:48.127Z,90.60
2018-06-08T02:59:16.984Z,90.30
2018-06-08T03:01:45.838Z,90.30
2018-06-08T03:04:14.683Z,90.30
2018-06-08T03:06:43.535Z,90.40
2018-06-08T03:09:12.374Z,91.00
2018-06-08T03:11:41.212Z,90.70
2018-06-08T03:14:10.065Z,90.70
2018-06-08T03:16:38.902Z,90.60
2018-06-08T03:19:07.740Z,90.80
2018-06-08T03:21:36.593Z,90.70
2018-06-08T03:24:05.436Z,90.10
2018-06-08T03:26:34.293Z,90.40
2018-06-08T03:29:03.136Z,90.20
2018-06-08T03:31:31.985Z,90.30
2018-06-08T03:34:00.823Z,90.20
2018-06-08T03:36:29.667Z,90.60
2018-06-08T03:38:58.509Z,90.20
2018-06-08T03:41:27.353Z,90.20
2018-06-08T03:43:56.195Z,90.40
2018-06-08T03:46:25.045Z,90.60
2018-06-08T03:48:53.896Z,90.70
2018-06-08T03:51:22.733Z,90.90
2018-06-08T03:53:51.575Z,90.70
2018-06-08T03:56:20.407Z,90.80
2018-06-08T03:58:49.252Z,90.70
2018-06-08T04:01:18.103Z,90.70
2018-06-08T04:03:46.956Z,90.70
2018-06-08T04:06:15.800Z,90.60
2018-06-08T04:08:44.636Z,90.40
2018-06-08T04:11:13.490Z,90.40
2018-06-08T04:13:42.340Z,90.40
2018-06-08T04:16:11.191Z,90.40
2018-06-08T04:18:40.264Z,90.50
2018-06-08T04:21:08.890Z,90.10
2018-06-08T04:26:06.586Z,90.10
2018-06-08T04:28:35.430Z,90.00
2018-06-08T04:31:04.281Z,90.10
2018-06-08T04:33:33.129Z,90.60
2018-06-08T04:36:01.981Z,90.70
2018-06-08T04:38:30.840Z,90.80
2018-06-08T04:40:59.696Z,90.40
2018-06-08T04:43:28.538Z,90.50
2018-06-08T04:45:57.382Z,90.70
2018-06-08T04:48:26.232Z,90.60
2018-06-08T04:50:55.080Z,90.50
2018-06-08T04:53:23.935Z,90.20
2018-06-08T04:55:52.777Z,90.30
2018-06-08T04:58:21.618Z,90.60
2018-06-08T05:00:50.483Z,90.50
2018-06-08T05:03:19.324Z,90.40
2018-06-08T05:05:48.167Z,90.20
2018-06-08T05:08:17.013Z,90.40
2018-06-08T05:10:45.856Z,90.00
2018-06-08T05:13:14.700Z,89.30
2018-06-08T05:15:43.549Z,89.40
2018-06-08T05:18:12.386Z,89.40
2018-06-08T05:20:41.227Z,89.50
2018-06-08T05:23:10.064Z,89.00
2018-06-08T05:25:38.908Z,88.90
2018-06-08T05:28:07.758Z,88.50
2018-06-08T05:30:36.595Z,89.20
2018-06-08T05:33:05.448Z,89.00
2018-06-08T05:35:34.296Z,89.20
2018-06-08T05:38:03.135Z,88.10
2018-06-08T05:40:31.987Z,88.40
2018-06-08T05:43:00.828Z,88.20
2018-06-08T05:45:29.680Z,88.20
2018-06-08T05:47:58.527Z,87.40
2018-06-08T05:50:27.371Z,87.10
2018-06-08T05:52:56.233Z,87.00
2018-06-08T05:55:25.072Z,86.90
2018-06-08T05:57:53.940Z,86.40
2018-06-08T06:00:22.791Z,86.60
2018-06-08T06:02:51.649Z,86.70
2018-06-08T06:05:20.506Z,86.80
2018-06-08T06:07:49.342Z,86.30
2018-06-08T06:10:18.196Z,86.00
2018-06-08T06:12:47.051Z,86.30
2018-06-08T06:15:15.897Z,85.50
2018-06-08T06:17:44.755Z,86.10
2018-06-08T06:20:13.615Z,86.20
2018-06-08T06:22:42.461Z,85.70
2018-06-08T06:25:11.322Z,85.60
2018-06-08T06:27:40.165Z,85.10
2018-06-08T06:30:09.009Z,85.00
2018-06-08T06:32:37.872Z,83.80
2018-06-08T06:35:06.733Z,83.60
2018-06-08T06:37:35.589Z,84.40
2018-06-08T06:40:04.465Z,84.00
2018-06-08T06:42:33.279Z,83.80
2018-06-08T06:45:02.122Z,83.90
2018-06-08T06:47:30.965Z,83.50
2018-06-08T06:49:59.827Z,83.30
2018-06-08T06:52:28.677Z,83.20
2018-06-08T06:54:57.525Z,83.20
2018-06-08T06:57:26.366Z,83.00
2018-06-08T06:59:55.221Z,83.20
2018-06-08T07:02:24.069Z,83.10
2018-06-08T07:04:52.920Z,83.20
2018-06-08T07:07:21.755Z,83.10
2018-06-08T07:09:50.604Z,83.10
2018-06-08T07:14:51.798Z,83.40
2018-06-08T07:17:20.651Z,83.20
2018-06-08T07:19:49.488Z,83.50
2018-06-08T07:22:18.361Z,83.20
2018-06-08T07:24:47.214Z,82.70
2018-06-08T07:27:16.051Z,81.80
2018-06-08T07:29:45.643Z,81.50
2018-06-08T07:32:14.486Z,82.30
2018-06-08T07:34:43.332Z,82.20
2018-06-08T07:37:12.196Z,81.80
2018-06-08T07:39:41.074Z,81.50
2018-06-08T07:42:09.913Z,81.00
2018-06-08T07:44:38.760Z,80.50
2018-06-08T07:47:07.596Z,80.60
2018-06-08T07:49:36.445Z,79.50
2018-06-08T07:52:05.291Z,79.10
2018-06-08T07:54:34.147Z,79.30
2018-06-08T07:57:02.995Z,79.30
2018-06-08T07:59:31.837Z,79.00
2018-06-08T08:02:00.688Z,78.60
2018-06-08T08:04:29.534Z,78.50
2018-06-08T08:06:58.379Z,78.20
2018-06-08T08:09:27.212Z,78.40
2018-06-08T08:11:56.065Z,77.50
2018-06-08T08:14:24.908Z,77.20
2018-06-08T08:16:53.749Z,78.00
2018-06-08T08:19:22.632Z,77.00
2018-06-08T08:21:51.458Z,76.10
2018-06-08T08:24:20.307Z,76.20
2018-06-08T08:26:49.159Z,75.90
2018-06-08T08:29:18.028Z,76.30
2018-06-08T08:31:47.937Z,75.90
2018-06-08T08:34:16.847Z,76.80
2018-06-08T08:36:45.635Z,75.50
2018-06-08T08:39:14.481Z,75.80
2018-06-08T08:41:44.075Z,75.40
2018-06-08T08:44:12.940Z,74.70
2018-06-08T08:46:41.794Z,75.20
2018-06-08T08:49:10.640Z,75.20
2018-06-08T08:51:39.520Z,74.40
2018-06-08T08:54:08.336Z,73.60
2018-06-08T08:56:37.923Z,73.10
2018-06-08T09:01:36.931Z,72.50
2018-06-08T09:04:05.798Z,72.00
2018-06-08T09:06:34.646Z,71.70
2018-06-08T09:09:03.728Z,72.20
2018-06-08T09:11:32.408Z,71.50
2018-06-08T09:14:01.200Z,71.60
2018-06-08T09:16:30.796Z,71.10
2018-06-08T09:18:59.657Z,71.80
2018-06-08T09:21:28.511Z,72.50
2018-06-08T09:23:57.368Z,71.50
2018-06-08T09:26:26.955Z,72.20
2018-06-08T09:28:55.809Z,71.50
2018-06-08T09:31:24.650Z,70.70
2018-06-08T09:33:54.231Z,71.20
2018-06-08T09:36:23.068Z,70.70
2018-06-08T09:38:51.922Z,71.30
2018-06-08T09:41:20.783Z,70.00
2018-06-08T09:43:49.628Z,70.30
2018-06-08T09:46:19.248Z,70.50
2018-06-08T09:48:48.075Z,70.70
2018-06-08T09:51:16.923Z,69.60
2018-06-08T09:53:45.778Z,69.60
2018-06-08T09:56:14.616Z,70.30
2018-06-08T09:58:43.463Z,70.30
2018-06-08T10:01:12.301Z,69.30
2018-06-08T10:03:41.145Z,69.40
2018-06-08T10:06:10.744Z,68.80
2018-06-08T10:11:09.053Z,68.90
2018-06-08T10:13:38.635Z,68.90
2018-06-08T10:16:07.507Z,68.60
2018-06-08T10:18:37.164Z,67.70
2018-06-08T10:21:06.005Z,67.40
2018-06-08T10:23:34.860Z,68.00
2018-06-08T10:26:03.697Z,68.50
2018-06-08T10:28:32.542Z,67.20
2018-06-08T10:31:01.381Z,66.90
2018-06-08T10:33:30.248Z,67.20
2018-06-08T10:35:59.083Z,66.50
2018-06-08T10:38:28.680Z,65.40
2018-06-08T10:40:57.791Z,64.90
2018-06-08T10:43:26.637Z,64.50
2018-06-08T10:45:55.494Z,64.90
2018-06-08T10:48:24.348Z,64.50
2018-06-08T10:50:53.936Z,64.90
2018-06-08T10:53:22.768Z,64.20
2018-06-08T10:55:51.633Z,64.50
2018-06-08T10:58:20.470Z,63.20
2018-06-08T11:00:49.310Z,64.50
2018-06-08T11:03:18.164Z,64.30
2018-06-08T11:05:47.009Z,62.70
2018-06-08T11:08:15.862Z,62.20
2018-06-08T11:10:44.717Z,61.10
2018-06-08T11:13:13.560Z,62.70
2018-06-08T11:15:42.419Z,62.00
2018-06-08T11:18:11.289Z,62.20
2018-06-08T11:20:40.129Z,61.40
2018-06-08T11:23:09.234Z,60.60
2018-06-08T11:25:38.127Z,61.10
2018-06-08T11:28:06.974Z,60.60
2018-06-08T11:30:35.813Z,61.50
2018-06-08T11:33:04.772Z,59.80
2018-06-08T11:35:33.518Z,59.30
2018-06-08T11:38:02.352Z,59.30
2018-06-08T11:40:31.259Z,60.60
2018-06-08T11:43:00.076Z,60.80
2018-06-08T11:45:28.922Z,59.50
2018-06-08T11:47:57.760Z,59.00
2018-06-08T11:50:26.603Z,59.20
2018-06-08T11:52:55.449Z,60.10
2018-06-08T11:55:24.303Z,60.60
2018-06-08T11:57:53.161Z,59.80
2018-06-08T12:00:22.028Z,59.70
2018-06-08T12:02:50.857Z,59.30
2018-06-08T12:05:19.735Z,59.80
2018-06-08T12:07:48.581Z,59.30
2018-06-08T12:10:17.432Z,58.20
2018-06-08T12:12:46.282Z,58.60
2018-06-08T12:15:15.130Z,57.70
2018-06-08T12:17:43.995Z,58.30
2018-06-08T12:20:12.848Z,58.20
2018-06-08T12:22:41.698Z,57.30
2018-06-08T12:25:10.553Z,56.80
2018-06-08T12:27:39.418Z,56.00
2018-06-08T12:30:08.239Z,56.20
2018-06-08T12:32:37.084Z,57.20
2018-06-08T12:35:05.926Z,56.20
2018-06-08T12:37:34.765Z,55.60
2018-06-08T12:40:03.615Z,55.90
2018-06-08T12:42:32.478Z,55.80
2018-06-08T12:45:01.306Z,55.50
2018-06-08T12:47:30.154Z,55.00
2018-06-08T12:49:58.993Z,55.60
2018-06-08T12:52:27.835Z,55.30
2018-06-08T12:54:56.671Z,55.10
2018-06-08T12:57:25.516Z,54.30
2018-06-08T12:59:54.363Z,54.20
2018-06-08T13:02:23.371Z,53.60
2018-06-08T13:04:52.177Z,52.10
2018-06-08T13:07:21.035Z,52.10
2018-06-08T13:09:49.885Z,51.50
2018-06-08T13:12:18.736Z,50.70
2018-06-08T13:17:17.016Z,51.20
2018-06-08T13:19:45.871Z,49.90
2018-06-08T13:22:14.713Z,50.40
2018-06-08T13:24:44.289Z,50.80
2018-06-08T13:27:13.138Z,50.50
2018-06-08T13:29:41.974Z,51.20
2018-06-08T13:32:11.576Z,50.50
2018-06-08T13:34:40.434Z,49.80
2018-06-08T13:37:09.283Z,52.10
2018-06-08T13:39:38.147Z,52.80
2018-06-08T13:42:06.970Z,51.30
2018-06-08T13:44:35.833Z,49.20
2018-06-08T13:47:04.686Z,48.00
2018-06-08T13:49:33.544Z,48.90
2018-06-08T13:52:02.385Z,49.10
2018-06-08T13:54:31.223Z,48.40
2018-06-08T13:57:00.061Z,47.20
2018-06-08T13:59:28.898Z,46.70
2018-06-08T14:01:57.949Z,46.30
2018-06-08T14:04:26.601Z,46.30
2018-06-08T14:06:55.438Z,45.60
2018-06-08T14:09:24.271Z,45.90
2018-06-08T14:11:53.156Z,45.30
2018-06-08T14:14:21.950Z,46.30
2018-06-08T14:16:50.791Z,46.70
2018-06-08T14:19:19.634Z,46.70
2018-06-08T14:21:48.470Z,45.10
2018-06-08T14:24:17.319Z,45.70
2018-06-08T14:26:46.176Z,46.50
2018-06-08T14:29:15.003Z,46.50
2018-06-08T14:31:43.836Z,47.10
2018-06-08T14:34:12.679Z,47.30
2018-06-08T14:36:41.522Z,45.90
2018-06-08T14:39:10.379Z,45.70
2018-06-08T14:41:39.219Z,46.60
2018-06-08T14:44:08.052Z,46.40
2018-06-08T14:46:36.889Z,45.50
2018-06-08T14:49:05.731Z,46.00
2018-06-08T14:51:34.571Z,46.10
2018-06-08T14:54:03.415Z,46.40
2018-06-08T14:56:32.330Z,45.10
2018-06-08T14:59:01.172Z,44.40
2018-06-08T15:01:30.011Z,44.40
2018-06-08T15:03:58.845Z,45.70
2018-06-08T15:06:27.688Z,45.80
2018-06-08T15:08:56.522Z,47.80
2018-06-08T15:11:25.367Z,47.10
2018-06-08T15:13:54.204Z,45.90
2018-06-08T15:16:23.040Z,45.00
2018-06-08T15:18:51.875Z,45.70
2018-06-08T15:21:20.726Z,45.50
2018-06-08T15:23:49.557Z,45.90
2018-06-08T15:26:18.399Z,47.50
2018-06-08T15:28:47.240Z,48.00
2018-06-08T15:31:16.085Z,48.30
2018-06-08T15:33:44.931Z,47.50
2018-06-08T15:36:13.780Z,49.20
2018-06-08T15:38:42.627Z,47.90
2018-06-08T15:41:11.473Z,48.20
2018-06-08T15:43:40.393Z,48.00
2018-06-08T15:46:09.231Z,47.00
2018-06-08T15:48:38.071Z,47.30
2018-06-08T15:51:06.911Z,47.10
2018-06-08T15:53:35.765Z,47.10
2018-06-08T15:56:04.590Z,46.80
2018-06-08T15:58:33.441Z,46.00
2018-06-08T16:03:31.746Z,46.90
2018-06-08T16:06:00.604Z,46.60
2018-06-08T16:08:29.480Z,48.10
2018-06-08T16:10:58.280Z,48.90
2018-06-08T16:13:27.132Z,50.10
2018-06-08T16:15:55.968Z,50.50
2018-06-08T16:18:24.814Z,50.40
2018-06-08T16:20:53.643Z,50.30
2018-06-08T16:23:22.480Z,50.90
2018-06-08T16:25:51.326Z,50.40
2018-06-08T16:28:20.169Z,51.30
2018-06-08T16:30:49.138Z,51.80
2018-06-08T16:33:17.980Z,51.70
2018-06-08T16:35:46.822Z,50.80
2018-06-08T16:38:15.687Z,51.10
2018-06-08T16:40:44.538Z,51.00
2018-06-08T16:43:13.409Z,51.00
2018-06-08T16:45:42.270Z,51.50
2018-06-08T16:48:11.128Z,51.50
2018-06-08T16:50:39.965Z,50.20
2018-06-08T16:53:08.815Z,50.60
2018-06-08T16:55:37.657Z,51.60
2018-06-08T16:58:06.550Z,51.10
2018-06-08T17:00:35.352Z,52.00
2018-06-08T17:03:04.194Z,51.80
2018-06-08T17:05:33.034Z,52.00
2018-06-08T17:08:01.885Z,51.40
2018-06-08T17:10:30.720Z,51.60
2018-06-08T17:12:59.562Z,52.00
2018-06-08T17:15:28.407Z,52.20
2018-06-08T17:17:57.316Z,53.20
2018-06-08T17:20:26.120Z,53.80
2018-06-08T17:22:54.975Z,54.40
2018-06-08T17:25:23.817Z,54.20
2018-06-08T17:27:52.656Z,54.20
2018-06-08T17:30:21.499Z,54.90
2018-06-08T17:32:50.338Z,55.60
2018-06-08T17:35:19.161Z,55.80
2018-06-08T17:37:47.988Z,56.20
2018-06-08T17:40:16.830Z,56.70
2018-06-08T17:42:45.671Z,57.80
2018-06-08T17:45:14.530Z,58.10
2018-06-08T17:47:43.366Z,58.60
2018-06-08T17:50:12.208Z,59.50
2018-06-08T17:52:41.038Z,60.40
2018-06-08T17:55:09.883Z,61.10
2018-06-08T17:57:38.723Z,61.60
2018-06-08T18:00:07.568Z,61.80
2018-06-08T18:02:36.402Z,62.30
2018-06-08T18:05:05.247Z,63.30
2018-06-08T18:07:34.083Z,63.80
2018-06-08T18:10:02.927Z,64.40
2018-06-08T18:12:31.764Z,64.50
2018-06-08T18:15:00.621Z,65.00
2018-06-08T18:17:29.459Z,65.10
2018-06-08T18:19:58.297Z,65.40
2018-06-08T18:22:27.151Z,65.40
2018-06-08T18:24:55.972Z,66.00
2018-06-08T18:27:24.821Z,66.10
2018-06-08T18:29:54.409Z,66.40
2018-06-08T18:32:23.264Z,66.90
2018-06-08T18:34:52.099Z,67.20
2018-06-08T18:37:21.695Z,67.40
2018-06-08T18:39:50.603Z,67.40
2018-06-08T18:42:19.377Z,67.80
2018-06-08T18:44:48.227Z,67.40
2018-06-08T18:47:17.068Z,67.80
2018-06-08T18:49:46.674Z,67.90
2018-06-08T18:52:16.254Z,68.00
2018-06-08T18:54:45.104Z,68.10
2018-06-08T18:57:13.961Z,68.40
2018-06-08T18:59:42.810Z,68.50
2018-06-08T19:02:11.654Z,68.80
2018-06-08T19:04:40.514Z,68.90
2018-06-08T19:07:09.376Z,68.90
2018-06-08T19:09:38.212Z,68.80
2018-06-08T19:12:07.080Z,69.00
2018-06-08T19:14:35.911Z,69.30
2018-06-08T19:17:04.754Z,69.40
2018-06-08T19:19:33.604Z,69.70
2018-06-08T19:22:02.453Z,69.80
2018-06-08T19:24:32.048Z,70.10
2018-06-08T19:27:00.902Z,70.10
2018-06-08T19:29:29.747Z,70.90
2018-06-08T19:31:58.595Z,70.00
2018-06-08T19:34:27.439Z,69.20
2018-06-08T19:36:56.311Z,68.40
2018-06-08T19:39:25.898Z,68.30
2018-06-08T19:41:54.759Z,68.00
2018-06-08T19:44:23.631Z,67.90
2018-06-08T19:46:52.474Z,68.50
2018-06-08T19:49:22.079Z,67.90
2018-06-08T19:51:50.928Z,67.90
2018-06-08T19:54:19.764Z,68.70
2018-06-08T19:56:49.362Z,68.50
2018-06-08T19:59:18.939Z,68.80
2018-06-08T20:01:47.782Z,69.00
2018-06-08T20:04:16.669Z,69.50
2018-06-08T20:06:46.247Z,70.10
2018-06-08T20:09:15.110Z,70.30
2018-06-08T20:11:43.952Z,70.30
2018-06-08T20:14:13.531Z,70.30
2018-06-08T20:16:42.383Z,70.30
2018-06-08T20:19:11.252Z,70.40
2018-06-08T20:21:40.110Z,70.80
2018-06-08T20:24:09.721Z,71.20
2018-06-08T20:26:39.316Z,71.30
2018-06-08T20:29:08.161Z,71.70
2018-06-08T20:31:37.000Z,72.00
2018-06-08T20:34:06.602Z,72.20
2018-06-08T20:36:35.454Z,72.80
2018-06-08T20:39:04.317Z,72.60
2018-06-08T20:41:33.408Z,72.80
2018-06-08T20:44:02.039Z,73.20
2018-06-08T20:46:30.891Z,73.70
2018-06-08T20:48:59.734Z,74.10
2018-06-08T20:51:28.592Z,74.50
2018-06-08T20:53:57.432Z,74.90
2018-06-08T20:56:27.074Z,75.00
2018-06-08T20:58:55.869Z,75.50
2018-06-08T21:01:24.721Z,75.80
2018-06-08T21:03:53.556Z,75.80
2018-06-08T21:06:22.524Z,75.70
2018-06-08T21:08:51.365Z,75.60
2018-06-08T21:11:20.206Z,75.60
2018-06-08T21:13:49.058Z,75.50
2018-06-08T21:16:17.897Z,75.70
2018-06-08T21:18:46.745Z,75.70
2018-06-08T21:21:15.592Z,76.20
2018-06-08T21:23:44.424Z,76.20
2018-06-08T21:26:13.277Z,76.20
2018-06-08T21:28:42.108Z,76.20
2018-06-08T21:31:10.946Z,77.10
2018-06-08T21:33:39.782Z,76.90
2018-06-08T21:36:08.625Z,76.90
2018-06-08T21:38:37.470Z,76.80
2018-06-08T21:41:06.362Z,76.90
2018-06-08T21:43:35.214Z,77.00
2018-06-08T21:46:04.064Z,76.90
2018-06-08T21:48:32.911Z,76.90
2018-06-08T21:51:01.769Z,76.80
2018-06-08T21:53:30.604Z,76.90
2018-06-08T21:55:59.503Z,76.80
2018-06-08T21:58:28.343Z,77.10
2018-06-08T22:00:57.199Z,77.20
2018-06-08T22:03:26.052Z,77.20
2018-06-08T22:05:54.900Z,77.20
2018-06-08T22:08:23.760Z,78.00
2018-06-08T22:10:52.625Z,77.50
2018-06-08T22:13:21.475Z,77.80
2018-06-08T22:15:50.310Z,78.00
2018-06-08T22:18:19.158Z,78.30
2018-06-08T22:20:48.013Z,78.40
2018-06-08T22:23:16.863Z,78.50
2018-06-08T22:25:45.709Z,78.80
2018-06-08T22:28:14.544Z,79.10
2018-06-08T22:30:43.395Z,78.80
2018-06-08T22:33:12.240Z,78.80
2018-06-08T22:35:41.077Z,78.70
2018-06-08T22:38:09.927Z,78.70
2018-06-08T22:40:38.779Z,78.80
2018-06-08T22:43:07.632Z,78.40
2018-06-08T22:45:36.480Z,78.10
2018-06-08T22:48:05.326Z,78.10
2018-06-08T22:50:34.183Z,78.00
2018-06-08T22:53:03.027Z,77.80
2018-06-08T22:55:31.864Z,77.40
2018-06-08T22:58:00.704Z,77.20
2018-06-08T23:00:29.564Z,77.20
2018-06-08T23:02:58.413Z,77.40
2018-06-08T23:05:27.253Z,77.30
2018-06-08T23:07:56.105Z,77.20
2018-06-08T23:10:25.049Z,77.10
2018-06-08T23:12:53.791Z,77.20
2018-06-08T23:15:22.622Z,77.20
2018-06-08T23:17:51.455Z,77.30
2018-06-08T23:20:20.300Z,77.70
2018-06-08T23:22:49.155Z,78.20
2018-06-08T23:25:17.999Z,78.60
2018-06-08T23:27:46.853Z,78.90
2018-06-08T23:30:15.703Z,79.40
2018-06-08T23:32:44.557Z,79.30
2018-06-08T23:35:13.391Z,79.40
2018-06-08T23:37:42.244Z,79.60
2018-06-08T23:40:11.066Z,79.80
2018-06-08T23:42:39.906Z,80.10
2018-06-08T23:45:08.742Z,80.50
2018-06-08T23:47:37.580Z,80.50
2018-06-08T23:50:06.415Z,80.70
2018-06-08T23:52:35.243Z,80.80
2018-06-08T23:55:04.084Z,81.10
2018-06-08T23:57:32.925Z,81.50
